createdAt,value
2022-12-13T00:01:29.730Z,54.53
2022-12-13T00:03:58.885Z,53.23
2022-12-13T00:06:29.082Z,57.87
2022-12-13T00:08:56.798Z,56.80
2022-12-13T00:11:24.525Z,55.80
2022-12-13T00:13:52.291Z,55.33
2022-12-13T00:16:22.843Z,59.57
2022-12-13T00:18:52.334Z,54.17
2022-12-13T00:21:21.996Z,54.20
2022-12-13T00:23:51.612Z,50.43
2022-12-13T00:26:20.898Z,53.60
2022-12-13T00:28:49.518Z,56.20
2022-12-13T00:31:53.550Z,56.67
2022-12-13T00:34:05.759Z,53.67
2022-12-13T00:36:33.506Z,57.13
2022-12-13T00:39:02.794Z,54.57
2022-12-13T00:41:32.676Z,53.00
2022-12-13T00:44:01.620Z,51.70
2022-12-13T00:46:30.378Z,52.97
2022-12-13T00:49:01.032Z,51.93
2022-12-13T00:51:30.852Z,52.07
2022-12-13T00:53:59.145Z,51.47
2022-12-13T00:56:30.889Z,51.93
2022-12-13T00:58:59.138Z,55.93
2022-12-13T01:01:29.158Z,53.07
2022-12-13T01:03:59.365Z,49.60
2022-12-13T01:06:30.285Z,49.57
2022-12-13T01:08:57.994Z,49.23
2022-12-13T01:11:27.797Z,48.30
2022-12-13T01:13:55.551Z,54.50
2022-12-13T01:16:23.380Z,56.50
2022-12-13T01:18:51.439Z,50.97
2022-12-13T01:21:21.028Z,49.70
2022-12-13T01:23:50.412Z,54.53
2022-12-13T01:26:21.623Z,49.03
2022-12-13T01:28:51.003Z,51.63
2022-12-13T01:31:21.599Z,58.13
2022-12-13T01:33:50.263Z,52.77
2022-12-13T01:36:27.025Z,52.37
2022-12-13T01:38:58.172Z,48.33
2022-12-13T01:41:27.779Z,49.23
2022-12-13T01:44:01.321Z,54.27
2022-12-13T01:46:29.091Z,51.57
2022-12-13T01:49:02.442Z,53.37
2022-12-13T01:51:35.149Z,48.07
2022-12-13T01:54:05.413Z,49.50
2022-12-13T01:56:37.100Z,58.13
2022-12-13T01:59:09.262Z,50.67
2022-12-13T02:01:37.656Z,49.43
2022-12-13T02:04:05.742Z,49.83
2022-12-13T02:06:36.115Z,46.70
2022-12-13T02:09:06.921Z,48.13
2022-12-13T02:11:36.312Z,47.80
2022-12-13T02:14:05.381Z,48.50
2022-12-13T02:16:48.801Z,51.70
2022-12-13T02:19:53.057Z,50.40
2022-12-13T02:22:38.715Z,52.47
2022-12-13T02:25:37.015Z,54.20
2022-12-13T02:28:31.605Z,49.40
2022-12-13T02:31:08.472Z,49.37
2022-12-13T02:33:45.725Z,45.27
2022-12-13T02:36:18.693Z,52.97
2022-12-13T02:38:53.991Z,49.37
2022-12-13T02:41:28.139Z,46.20
2022-12-13T02:44:02.055Z,47.90
2022-12-13T02:46:38.232Z,48.53
2022-12-13T02:49:10.189Z,50.33
2022-12-13T02:51:39.681Z,45.33
2022-12-13T02:54:07.418Z,46.77
2022-12-13T02:56:35.096Z,48.27
2022-12-13T02:59:10.072Z,45.23
2022-12-13T03:01:53.495Z,49.47
2022-12-13T03:05:03.998Z,47.43
2022-12-13T03:07:39.792Z,49.07
2022-12-13T03:10:16.773Z,44.00
2022-12-13T03:13:12.823Z,42.80
2022-12-13T03:15:47.615Z,47.27
2022-12-13T03:18:19.797Z,44.07
2022-12-13T03:20:49.185Z,43.90
2022-12-13T03:23:18.480Z,45.80
2022-12-13T03:25:48.685Z,41.20
2022-12-13T03:28:16.747Z,49.77
2022-12-13T03:30:44.486Z,45.60
2022-12-13T03:33:12.213Z,44.00
2022-12-13T03:35:44.870Z,44.77
2022-12-13T03:38:22.126Z,42.00
2022-12-13T03:40:54.538Z,45.23
2022-12-13T03:43:23.226Z,44.10
2022-12-13T03:45:51.749Z,43.03
2022-12-13T03:48:22.629Z,46.87
2022-12-13T03:50:54.439Z,41.40
2022-12-13T03:53:33.309Z,38.23
2022-12-13T03:56:02.854Z,38.60
2022-12-13T03:58:36.640Z,40.27
2022-12-13T04:01:06.877Z,43.27
2022-12-13T04:03:34.739Z,39.80
2022-12-13T04:06:04.053Z,42.07
2022-12-13T04:08:31.759Z,46.33
2022-12-13T04:10:59.479Z,50.80
2022-12-13T04:13:35.305Z,43.13
2022-12-13T04:16:04.045Z,44.77
2022-12-13T04:18:32.085Z,46.53
2022-12-13T04:20:59.746Z,42.37
2022-12-13T04:23:28.755Z,41.57
2022-12-13T04:25:57.340Z,41.57
2022-12-13T04:28:24.968Z,41.50
2022-12-13T04:30:53.955Z,45.33
2022-12-13T04:33:22.560Z,40.90
2022-12-13T04:35:51.306Z,38.03
2022-12-13T04:38:19.777Z,42.57
2022-12-13T04:40:48.866Z,46.13
2022-12-13T04:43:16.531Z,46.13
2022-12-13T04:45:44.381Z,45.37
2022-12-13T04:48:12.052Z,44.90
2022-12-13T04:50:39.721Z,46.03
2022-12-13T04:53:07.348Z,39.77
2022-12-13T04:55:35.373Z,42.23
2022-12-13T04:58:04.953Z,43.80
2022-12-13T05:00:32.648Z,42.47
2022-12-13T05:03:00.444Z,42.40
2022-12-13T05:05:28.052Z,46.43
2022-12-13T05:07:56.510Z,41.70
2022-12-13T05:10:34.091Z,43.93
2022-12-13T05:13:07.164Z,43.43
2022-12-13T05:15:35.727Z,46.27
2022-12-13T05:18:09.809Z,42.13
2022-12-13T05:20:39.649Z,43.53
2022-12-13T05:23:07.574Z,46.43
2022-12-13T05:25:37.115Z,43.50
2022-12-13T05:28:08.866Z,43.23
2022-12-13T05:30:55.522Z,45.53
2022-12-13T05:33:23.882Z,41.80
2022-12-13T05:35:54.981Z,42.73
2022-12-13T05:38:25.630Z,44.13
2022-12-13T05:40:53.260Z,44.07
2022-12-13T05:43:23.846Z,48.77
2022-12-13T05:46:10.299Z,48.00
2022-12-13T05:48:38.115Z,47.90
2022-12-13T05:51:09.789Z,42.43
2022-12-13T05:53:40.267Z,47.80
2022-12-13T05:56:08.663Z,44.77
2022-12-13T05:58:38.822Z,44.10
2022-12-13T06:01:08.945Z,47.73
2022-12-13T06:03:37.311Z,44.87
2022-12-13T06:06:06.806Z,45.87
2022-12-13T06:08:35.233Z,48.23
2022-12-13T06:11:11.758Z,52.33
2022-12-13T06:13:43.472Z,47.73
2022-12-13T06:16:23.043Z,45.10
2022-12-13T06:19:01.005Z,44.70
2022-12-13T06:21:44.127Z,45.97
2022-12-13T06:24:15.982Z,48.70
2022-12-13T06:26:44.969Z,49.33
2022-12-13T06:29:22.537Z,47.97
2022-12-13T06:32:01.204Z,47.17
2022-12-13T06:34:31.319Z,45.17
2022-12-13T06:36:58.991Z,46.27
2022-12-13T06:39:32.234Z,47.03
2022-12-13T06:42:00.321Z,46.00
2022-12-13T06:44:29.548Z,52.70
2022-12-13T06:47:10.768Z,49.73
2022-12-13T06:49:41.008Z,47.13
2022-12-13T06:52:11.723Z,45.50
2022-12-13T06:54:39.869Z,48.53
2022-12-13T06:57:07.542Z,44.93
2022-12-13T06:59:37.272Z,46.73
2022-12-13T07:02:06.528Z,46.50
2022-12-13T07:04:52.471Z,48.63
2022-12-13T07:07:20.363Z,44.47
2022-12-13T07:09:47.978Z,47.67
2022-12-13T07:12:15.741Z,42.20
2022-12-13T07:14:45.314Z,45.97
2022-12-13T07:17:13.081Z,43.50
2022-12-13T07:20:00.874Z,47.60
2022-12-13T07:22:29.388Z,46.30
2022-12-13T07:25:03.133Z,49.63
2022-12-13T07:27:36.966Z,45.10
2022-12-13T07:30:08.172Z,45.77
2022-12-13T07:32:35.851Z,47.57
2022-12-13T07:35:03.713Z,44.27
2022-12-13T07:37:31.391Z,43.67
2022-12-13T07:40:03.930Z,45.90
2022-12-13T07:42:32.927Z,44.87
2022-12-13T07:45:01.151Z,46.63
2022-12-13T07:47:31.688Z,43.47
2022-12-13T07:49:59.559Z,45.80
2022-12-13T07:52:29.397Z,45.27
2022-12-13T07:54:57.082Z,42.67
2022-12-13T07:57:25.602Z,44.63
2022-12-13T07:59:53.236Z,49.10
2022-12-13T08:02:20.909Z,45.83
2022-12-13T08:04:54.476Z,44.87
2022-12-13T08:07:23.074Z,44.67
2022-12-13T08:09:52.993Z,43.77
2022-12-13T08:12:22.518Z,44.97
2022-12-13T08:14:53.178Z,43.93
2022-12-13T08:17:21.498Z,48.50
2022-12-13T08:19:50.658Z,49.03
2022-12-13T08:22:24.281Z,51.10
2022-12-13T08:24:52.217Z,44.53
2022-12-13T08:27:20.006Z,45.00
2022-12-13T08:29:47.638Z,44.30
2022-12-13T08:32:15.243Z,46.77
2022-12-13T08:34:43.347Z,51.70
2022-12-13T08:37:12.957Z,47.10
2022-12-13T08:39:41.147Z,49.33
2022-12-13T08:42:15.903Z,48.33
2022-12-13T08:44:46.468Z,44.47
2022-12-13T08:47:24.815Z,46.40
2022-12-13T08:50:02.902Z,47.23
2022-12-13T08:52:39.339Z,45.30
2022-12-13T08:55:09.769Z,48.87
2022-12-13T08:57:37.830Z,50.90
2022-12-13T09:00:06.202Z,48.70
2022-12-13T09:02:38.080Z,46.43
2022-12-13T09:05:08.299Z,48.87
2022-12-13T09:07:39.418Z,48.27
2022-12-13T09:10:26.329Z,49.40
2022-12-13T09:13:01.423Z,49.57
2022-12-13T09:15:34.588Z,47.87
2022-12-13T09:18:04.403Z,46.67
2022-12-13T09:20:41.131Z,46.90
2022-12-13T09:23:14.220Z,48.30
2022-12-13T09:26:05.648Z,48.50
2022-12-13T09:28:35.013Z,48.47
2022-12-13T09:31:03.270Z,42.60
2022-12-13T09:33:31.400Z,47.90
2022-12-13T09:36:01.365Z,50.77
2022-12-13T09:38:30.887Z,50.80
2022-12-13T09:41:12.447Z,47.57
2022-12-13T09:43:50.668Z,46.20
2022-12-13T09:46:27.504Z,49.23
2022-12-13T09:49:05.409Z,47.50
2022-12-13T09:51:46.667Z,45.37
2022-12-13T09:54:22.130Z,50.27
2022-12-13T09:56:51.624Z,48.00
2022-12-13T09:59:25.305Z,50.27
2022-12-13T10:01:53.034Z,47.50
2022-12-13T10:04:20.826Z,46.00
2022-12-13T10:06:53.471Z,47.80
2022-12-13T10:09:23.542Z,45.03
2022-12-13T10:11:53.098Z,50.00
2022-12-13T10:14:26.121Z,45.73
2022-12-13T10:16:57.870Z,49.47
2022-12-13T10:19:34.218Z,48.10
2022-12-13T10:22:04.108Z,43.23
2022-12-13T10:24:51.928Z,51.70
2022-12-13T10:27:21.291Z,46.63
2022-12-13T10:30:01.527Z,47.80
2022-12-13T10:32:29.928Z,46.20
2022-12-13T10:35:21.496Z,47.53
2022-12-13T10:37:49.434Z,43.07
2022-12-13T10:40:35.618Z,47.07
2022-12-13T10:43:13.964Z,48.27
2022-12-13T10:45:42.307Z,48.33
2022-12-13T10:48:21.048Z,44.57
2022-12-13T10:50:59.516Z,43.60
2022-12-13T10:53:32.316Z,44.00
2022-12-13T10:56:03.112Z,45.43
2022-12-13T10:58:39.813Z,47.57
2022-12-13T11:01:20.447Z,44.87
2022-12-13T11:04:02.313Z,47.27
2022-12-13T11:06:43.705Z,45.80
2022-12-13T11:09:23.057Z,41.60
2022-12-13T11:11:58.309Z,42.27
2022-12-13T11:14:31.673Z,42.60
2022-12-13T11:17:06.576Z,45.50
2022-12-13T11:19:39.768Z,44.43
2022-12-13T11:22:09.846Z,43.30
2022-12-13T11:24:42.161Z,42.73
2022-12-13T11:27:37.009Z,48.90
2022-12-13T11:30:12.874Z,45.13
2022-12-13T11:33:00.486Z,41.73
2022-12-13T11:35:35.109Z,45.93
2022-12-13T11:38:16.402Z,44.80
2022-12-13T11:40:50.334Z,42.40
2022-12-13T11:43:27.842Z,47.27
2022-12-13T11:45:59.384Z,46.70
2022-12-13T11:48:40.642Z,46.77
2022-12-13T11:51:12.491Z,45.00
2022-12-13T11:53:49.737Z,47.60
2022-12-13T11:56:25.370Z,41.10
2022-12-13T11:59:04.707Z,43.43
2022-12-13T12:01:39.037Z,42.73
2022-12-13T12:04:29.873Z,39.53
2022-12-13T12:07:30.633Z,43.23
2022-12-13T12:09:59.293Z,41.30
2022-12-13T12:12:32.961Z,41.53
2022-12-13T12:15:16.193Z,44.40
2022-12-13T12:17:44.776Z,43.63
2022-12-13T12:20:23.418Z,43.50
2022-12-13T12:23:04.349Z,43.13
2022-12-13T12:25:42.226Z,40.17
2022-12-13T12:28:22.821Z,40.30
2022-12-13T12:31:01.180Z,37.93
2022-12-13T12:33:37.844Z,36.40
2022-12-13T12:36:28.293Z,40.73
2022-12-13T12:39:28.234Z,38.57
2022-12-13T12:42:14.217Z,37.47
2022-12-13T12:44:49.346Z,43.77
2022-12-13T12:47:56.485Z,38.97
2022-12-13T12:50:34.493Z,39.37
2022-12-13T12:53:16.940Z,34.63
2022-12-13T12:55:53.690Z,35.57
2022-12-13T12:58:30.083Z,35.50
2022-12-13T13:01:13.439Z,38.27
2022-12-13T13:03:44.498Z,34.60
2022-12-13T13:06:16.581Z,35.47
2022-12-13T13:08:54.977Z,39.80
2022-12-13T13:11:26.002Z,37.37
2022-12-13T13:14:06.622Z,34.37
2022-12-13T13:16:37.889Z,33.97
2022-12-13T13:19:28.798Z,36.83
2022-12-13T13:22:01.477Z,37.70
2022-12-13T13:24:31.359Z,34.90
2022-12-13T13:27:00.675Z,35.33
2022-12-13T13:29:37.608Z,32.47
2022-12-13T13:32:29.579Z,36.13
2022-12-13T13:35:54.364Z,34.73
2022-12-13T13:38:50.766Z,32.23
2022-12-13T13:42:07.781Z,29.33
2022-12-13T13:45:08.057Z,30.00
2022-12-13T13:47:41.864Z,28.87
2022-12-13T13:50:39.602Z,29.43
2022-12-13T13:56:41.109Z,33.67
2022-12-13T13:59:52.653Z,30.57
2022-12-13T14:02:49.712Z,34.07
2022-12-13T14:05:53.488Z,29.77
2022-12-13T14:08:32.308Z,32.07
2022-12-13T14:11:21.038Z,31.20
2022-12-13T14:14:28.791Z,29.10
2022-12-13T14:17:56.431Z,32.67
2022-12-13T14:20:47.106Z,31.33
2022-12-13T14:23:25.600Z,31.60
2022-12-13T14:26:06.097Z,27.87
2022-12-13T14:28:46.035Z,28.37
2022-12-13T14:31:21.870Z,27.37
2022-12-13T14:33:52.112Z,27.10
2022-12-13T14:36:28.633Z,30.57
2022-12-13T14:39:03.757Z,27.40
2022-12-13T14:41:32.149Z,31.93
2022-12-13T14:46:57.566Z,29.40
2022-12-13T14:49:28.799Z,26.97
2022-12-13T14:52:01.411Z,31.03
2022-12-13T14:54:33.837Z,26.77
2022-12-13T14:57:04.356Z,29.27
2022-12-13T14:59:33.593Z,27.50
2022-12-13T15:02:04.457Z,25.97
2022-12-13T15:04:35.242Z,26.40
2022-12-13T15:07:07.469Z,32.90
2022-12-13T15:09:40.584Z,28.40
2022-12-13T15:12:15.337Z,29.97
2022-12-13T15:14:59.542Z,27.47
2022-12-13T15:17:33.145Z,30.50
2022-12-13T15:20:23.888Z,28.73
2022-12-13T15:23:03.502Z,27.83
2022-12-13T15:25:39.039Z,26.80
2022-12-13T15:28:07.841Z,31.23
2022-12-13T15:30:37.019Z,30.07
2022-12-13T15:33:08.854Z,24.03
2022-12-13T15:35:38.428Z,26.70
2022-12-13T15:38:06.162Z,28.67
2022-12-13T15:40:34.861Z,26.47
2022-12-13T15:43:02.773Z,26.67
2022-12-13T15:45:36.894Z,26.17
2022-12-13T15:48:07.079Z,23.23
2022-12-13T15:50:38.507Z,24.07
2022-12-13T15:53:24.001Z,22.27
2022-12-13T15:55:51.917Z,25.50
2022-12-13T15:58:27.710Z,24.90
2022-12-13T16:00:56.556Z,22.67
2022-12-13T16:03:28.886Z,22.10
2022-12-13T16:05:58.962Z,25.07
2022-12-13T16:08:31.450Z,28.70
2022-12-13T16:11:00.140Z,24.03
2022-12-13T16:13:32.161Z,23.63
2022-12-13T16:16:09.293Z,27.87
2022-12-13T16:18:47.557Z,24.50
2022-12-13T16:21:15.659Z,23.10
2022-12-13T16:23:48.870Z,23.77
2022-12-13T16:26:23.010Z,21.53
2022-12-13T16:28:50.967Z,25.77
2022-12-13T16:31:22.533Z,29.33
2022-12-13T16:33:52.445Z,27.53
2022-12-13T16:36:20.564Z,26.57
2022-12-13T16:38:48.303Z,27.50
2022-12-13T16:41:16.342Z,29.03
2022-12-13T16:43:52.846Z,31.27
2022-12-13T16:47:17.115Z,24.37
2022-12-13T16:49:21.487Z,31.10
2022-12-13T16:51:49.851Z,31.60
2022-12-13T16:54:19.091Z,28.03
2022-12-13T16:56:47.145Z,24.30
2022-12-13T16:59:15.832Z,26.53
2022-12-13T17:01:45.219Z,31.37
2022-12-13T17:04:20.673Z,28.63
2022-12-13T17:06:49.798Z,31.10
2022-12-13T17:09:18.369Z,27.37
2022-12-13T17:11:46.485Z,27.23
2022-12-13T17:14:15.198Z,23.73
2022-12-13T17:16:42.987Z,23.90
2022-12-13T17:19:14.460Z,29.73
2022-12-13T17:21:43.827Z,24.67
2022-12-13T17:24:13.399Z,26.43
2022-12-13T17:26:54.454Z,30.33
2022-12-13T17:29:24.532Z,27.70
2022-12-13T17:31:53.755Z,22.23
2022-12-13T17:34:22.554Z,27.07
2022-12-13T17:36:51.969Z,25.63
2022-12-13T17:39:21.081Z,23.07
2022-12-13T17:41:55.031Z,29.33
2022-12-13T17:44:26.698Z,26.83
2022-12-13T17:46:56.075Z,29.47
2022-12-13T17:49:24.358Z,23.00
2022-12-13T17:51:54.918Z,26.30
2022-12-13T17:54:23.760Z,28.40
2022-12-13T17:56:52.175Z,25.80
2022-12-13T17:59:22.319Z,24.90
2022-12-13T18:01:50.673Z,26.40
2022-12-13T18:04:18.998Z,26.17
2022-12-13T18:06:46.890Z,27.63
2022-12-13T18:09:17.361Z,24.93
2022-12-13T18:11:45.746Z,22.73
2022-12-13T18:14:13.421Z,24.17
2022-12-13T18:16:41.138Z,24.07
2022-12-13T18:19:11.626Z,25.50
2022-12-13T18:21:39.574Z,32.30
2022-12-13T18:24:08.128Z,31.27
2022-12-13T18:26:37.385Z,22.73
2022-12-13T18:29:05.829Z,25.07
2022-12-13T18:31:33.673Z,23.87
2022-12-13T18:34:01.476Z,29.60
2022-12-13T18:36:30.130Z,23.57
2022-12-13T18:38:57.931Z,24.70
2022-12-13T18:41:28.243Z,22.23
2022-12-13T18:43:59.647Z,22.87
2022-12-13T18:46:28.539Z,24.13
2022-12-13T18:48:56.705Z,27.10
2022-12-13T18:51:25.079Z,24.97
2022-12-13T18:53:53.099Z,31.03
2022-12-13T18:56:21.158Z,30.73
2022-12-13T18:58:49.670Z,30.53
2022-12-13T19:01:19.891Z,33.73
2022-12-13T19:03:49.571Z,24.37
2022-12-13T19:06:19.920Z,26.00
2022-12-13T19:08:49.310Z,28.27
2022-12-13T19:11:17.598Z,26.93
2022-12-13T19:13:45.844Z,23.07
2022-12-13T19:16:21.329Z,25.37
2022-12-13T19:18:49.477Z,26.37
2022-12-13T19:21:19.863Z,23.77
2022-12-13T19:23:54.975Z,26.57
2022-12-13T19:26:25.432Z,27.07
2022-12-13T19:28:53.223Z,26.40
2022-12-13T19:31:28.512Z,27.90
2022-12-13T19:33:59.311Z,28.50
2022-12-13T19:36:27.021Z,23.23
2022-12-13T19:38:56.923Z,27.43
2022-12-13T19:41:25.715Z,27.60
2022-12-13T19:43:54.115Z,28.03
2022-12-13T19:46:23.336Z,29.70
2022-12-13T19:48:51.107Z,26.43
2022-12-13T19:51:19.036Z,26.87
2022-12-13T19:53:47.072Z,25.23
2022-12-13T19:56:17.577Z,25.83
2022-12-13T19:58:46.203Z,26.07
2022-12-13T20:01:14.337Z,25.63
2022-12-13T20:03:45.129Z,23.57
2022-12-13T20:06:15.984Z,25.23
2022-12-13T20:08:43.958Z,25.43
2022-12-13T20:11:14.991Z,28.73
2022-12-13T20:13:42.761Z,29.00
2022-12-13T20:16:16.239Z,29.57
2022-12-13T20:18:46.002Z,30.53
2022-12-13T20:21:15.443Z,35.07
2022-12-13T20:23:49.496Z,49.83
2022-12-13T20:26:19.236Z,49.97
2022-12-13T20:28:47.446Z,43.27
2022-12-13T20:31:17.118Z,37.23
2022-12-13T20:33:46.320Z,32.03
2022-12-13T20:36:25.584Z,33.90
2022-12-13T20:38:55.158Z,34.43
2022-12-13T20:41:23.094Z,32.77
2022-12-13T20:43:52.456Z,29.93
2022-12-13T20:46:21.080Z,31.67
2022-12-13T20:48:51.149Z,29.13
2022-12-13T20:51:21.890Z,27.77
2022-12-13T20:53:51.546Z,32.10
2022-12-13T20:56:21.963Z,28.40
2022-12-13T20:58:50.404Z,26.37
2022-12-13T21:01:19.752Z,29.63
2022-12-13T21:03:47.983Z,31.97
2022-12-13T21:06:17.017Z,31.83
2022-12-13T21:08:54.440Z,34.57
2022-12-13T21:11:27.189Z,31.13
2022-12-13T21:13:59.961Z,32.93
2022-12-13T21:16:34.507Z,30.87
2022-12-13T21:19:02.647Z,26.87
2022-12-13T21:21:32.159Z,23.20
2022-12-13T21:24:00.581Z,25.33
2022-12-13T21:26:34.631Z,27.67
2022-12-13T21:29:06.333Z,29.27
2022-12-13T21:31:35.875Z,28.53
2022-12-13T21:34:05.326Z,29.33
2022-12-13T21:36:36.896Z,26.73
2022-12-13T21:39:08.226Z,24.33
2022-12-13T21:41:35.974Z,26.90
2022-12-13T21:44:03.647Z,25.37
2022-12-13T21:46:55.148Z,26.70
2022-12-13T21:49:19.208Z,26.43
2022-12-13T21:51:48.730Z,27.50
2022-12-13T21:54:18.358Z,24.53
2022-12-13T21:57:03.783Z,24.77
2022-12-13T21:59:31.900Z,26.40
2022-12-13T22:02:13.439Z,22.50
2022-12-13T22:04:43.499Z,24.73
2022-12-13T22:07:14.629Z,23.80
2022-12-13T22:09:42.306Z,23.93
2022-12-13T22:12:11.606Z,24.63
2022-12-13T22:14:39.272Z,22.57
2022-12-13T22:17:06.897Z,23.70
2022-12-13T22:19:34.631Z,23.87
2022-12-13T22:22:02.310Z,23.20
2022-12-13T22:24:31.637Z,24.20
2022-12-13T22:26:59.464Z,24.43
2022-12-13T22:29:27.592Z,24.27
2022-12-13T22:31:55.574Z,21.03
2022-12-13T22:34:23.455Z,21.23
2022-12-13T22:36:51.389Z,21.37
2022-12-13T22:39:21.616Z,21.73
2022-12-13T22:41:52.502Z,19.13
2022-12-13T22:44:21.398Z,18.90
2022-12-13T22:46:49.317Z,20.97
2022-12-13T22:49:17.810Z,18.57
2022-12-13T22:51:45.567Z,19.57
2022-12-13T22:54:13.309Z,20.83
2022-12-13T22:56:41.010Z,18.77
2022-12-13T22:59:10.477Z,19.63
2022-12-13T23:01:42.412Z,20.13
2022-12-13T23:04:14.966Z,19.23
2022-12-13T23:06:42.750Z,19.07
2022-12-13T23:09:13.485Z,20.23
2022-12-13T23:11:58.709Z,20.13
2022-12-13T23:14:29.833Z,19.47
2022-12-13T23:16:57.821Z,21.47
2022-12-13T23:19:49.859Z,17.83
2022-12-13T23:22:13.961Z,18.63
2022-12-13T23:24:41.867Z,20.97
2022-12-13T23:27:09.944Z,21.27
2022-12-13T23:29:39.373Z,19.37
2022-12-13T23:32:07.398Z,19.37
2022-12-13T23:34:35.309Z,18.77
2022-12-13T23:37:03.102Z,19.37
2022-12-13T23:39:30.802Z,20.77
2022-12-13T23:41:58.521Z,19.73
2022-12-13T23:44:26.313Z,21.37
2022-12-13T23:46:55.327Z,21.17
2022-12-13T23:49:22.987Z,16.80
2022-12-13T23:51:50.645Z,19.10
2022-12-13T23:54:20.067Z,18.63
2022-12-13T23:56:47.962Z,18.07
2022-12-13T23:59:18.216Z,18.93
